sensor_id;sensor_type;location;lat;lon;timestamp;P1;durP1;ratioP1;P2;durP2;ratioP2
52586;SDS011;38480;52.724;6.436;2024-02-26T00:01:57;62.20;;;24.53;;
52586;SDS011;38480;52.724;6.436;2024-02-26T00:04:22;64.33;;;27.00;;
52586;SDS011;38480;52.724;6.436;2024-02-26T00:06:49;44.37;;;22.20;;
52586;SDS011;38480;52.724;6.436;2024-02-26T00:09:16;66.93;;;26.47;;
52586;SDS011;38480;52.724;6.436;2024-02-26T00:11:42;71.33;;;28.13;;
52586;SDS011;38480;52.724;6.436;2024-02-26T00:14:08;61.07;;;25.77;;
52586;SDS011;38480;52.724;6.436;2024-02-26T00:16:34;58.20;;;25.37;;
52586;SDS011;38480;52.724;6.436;2024-02-26T00:19:00;63.70;;;26.67;;
52586;SDS011;38480;52.724;6.436;2024-02-26T00:21:26;78.33;;;30.57;;
52586;SDS011;38480;52.724;6.436;2024-02-26T00:23:54;56.10;;;24.83;;
52586;SDS011;38480;52.724;6.436;2024-02-26T00:26:20;63.17;;;26.73;;
52586;SDS011;38480;52.724;6.436;2024-02-26T00:28:46;65.73;;;26.23;;
52586;SDS011;38480;52.724;6.436;2024-02-26T00:31:12;67.27;;;27.13;;
52586;SDS011;38480;52.724;6.436;2024-02-26T00:33:40;61.43;;;26.83;;
52586;SDS011;38480;52.724;6.436;2024-02-26T00:36:06;62.33;;;26.47;;
52586;SDS011;38480;52.724;6.436;2024-02-26T00:38:32;62.30;;;25.67;;
52586;SDS011;38480;52.724;6.436;2024-02-26T00:40:58;87.30;;;31.40;;
52586;SDS011;38480;52.724;6.436;2024-02-26T00:43:24;74.13;;;28.47;;
52586;SDS011;38480;52.724;6.436;2024-02-26T00:45:50;63.20;;;25.73;;
52586;SDS011;38480;52.724;6.436;2024-02-26T00:48:17;72.00;;;27.60;;
52586;SDS011;38480;52.724;6.436;2024-02-26T00:50:43;70.33;;;27.27;;
52586;SDS011;38480;52.724;6.436;2024-02-26T00:53:09;61.10;;;24.50;;
52586;SDS011;38480;52.724;6.436;2024-02-26T00:55:35;57.07;;;24.50;;
52586;SDS011;38480;52.724;6.436;2024-02-26T00:58:01;71.67;;;28.73;;
52586;SDS011;38480;52.724;6.436;2024-02-26T01:00:29;69.73;;;27.27;;
52586;SDS011;38480;52.724;6.436;2024-02-26T01:02:56;55.17;;;23.20;;
52586;SDS011;38480;52.724;6.436;2024-02-26T01:05:22;86.27;;;29.47;;
52586;SDS011;38480;52.724;6.436;2024-02-26T01:07:48;55.50;;;22.93;;
52586;SDS011;38480;52.724;6.436;2024-02-26T01:10:14;61.93;;;25.50;;
52586;SDS011;38480;52.724;6.436;2024-02-26T01:12:40;65.10;;;24.73;;
52586;SDS011;38480;52.724;6.436;2024-02-26T01:15:06;82.80;;;27.50;;
52586;SDS011;38480;52.724;6.436;2024-02-26T01:17:34;76.70;;;28.10;;
52586;SDS011;38480;52.724;6.436;2024-02-26T01:20:00;59.97;;;22.57;;
52586;SDS011;38480;52.724;6.436;2024-02-26T01:22:26;56.60;;;23.10;;
52586;SDS011;38480;52.724;6.436;2024-02-26T01:24:52;57.63;;;23.73;;
52586;SDS011;38480;52.724;6.436;2024-02-26T01:27:21;60.03;;;22.30;;
52586;SDS011;38480;52.724;6.436;2024-02-26T01:29:51;60.17;;;22.67;;
52586;SDS011;38480;52.724;6.436;2024-02-26T01:32:17;45.90;;;20.80;;
52586;SDS011;38480;52.724;6.436;2024-02-26T01:34:44;74.83;;;26.37;;
52586;SDS011;38480;52.724;6.436;2024-02-26T01:37:10;60.43;;;23.47;;
52586;SDS011;38480;52.724;6.436;2024-02-26T01:39:36;65.33;;;24.10;;
52586;SDS011;38480;52.724;6.436;2024-02-26T01:42:03;63.43;;;25.23;;
52586;SDS011;38480;52.724;6.436;2024-02-26T01:44:29;69.43;;;26.17;;
52586;SDS011;38480;52.724;6.436;2024-02-26T01:46:55;48.23;;;21.77;;
52586;SDS011;38480;52.724;6.436;2024-02-26T01:49:21;53.67;;;22.30;;
52586;SDS011;38480;52.724;6.436;2024-02-26T01:51:47;56.33;;;21.70;;
52586;SDS011;38480;52.724;6.436;2024-02-26T01:54:13;63.70;;;24.93;;
52586;SDS011;38480;52.724;6.436;2024-02-26T01:56:39;64.57;;;25.43;;
52586;SDS011;38480;52.724;6.436;2024-02-26T01:59:06;61.67;;;23.73;;
52586;SDS011;38480;52.724;6.436;2024-02-26T02:01:33;69.57;;;24.07;;
52586;SDS011;38480;52.724;6.436;2024-02-26T02:04:00;65.37;;;25.23;;
52586;SDS011;38480;52.724;6.436;2024-02-26T02:06:26;64.87;;;25.33;;
52586;SDS011;38480;52.724;6.436;2024-02-26T02:08:56;62.73;;;24.00;;
52586;SDS011;38480;52.724;6.436;2024-02-26T02:11:22;65.50;;;25.00;;
52586;SDS011;38480;52.724;6.436;2024-02-26T02:13:48;58.20;;;23.50;;
52586;SDS011;38480;52.724;6.436;2024-02-26T02:16:14;58.50;;;21.57;;
52586;SDS011;38480;52.724;6.436;2024-02-26T02:18:40;59.73;;;22.20;;
52586;SDS011;38480;52.724;6.436;2024-02-26T02:21:06;72.43;;;25.43;;
52586;SDS011;38480;52.724;6.436;2024-02-26T02:23:32;63.57;;;24.70;;
52586;SDS011;38480;52.724;6.436;2024-02-26T02:25:58;73.03;;;25.53;;
52586;SDS011;38480;52.724;6.436;2024-02-26T02:28:26;63.07;;;24.27;;
52586;SDS011;38480;52.724;6.436;2024-02-26T02:30:53;74.10;;;24.70;;
52586;SDS011;38480;52.724;6.436;2024-02-26T02:33:20;53.57;;;22.57;;
52586;SDS011;38480;52.724;6.436;2024-02-26T02:35:46;68.83;;;26.87;;
52586;SDS011;38480;52.724;6.436;2024-02-26T02:38:12;77.37;;;26.13;;
52586;SDS011;38480;52.724;6.436;2024-02-26T02:40:38;64.47;;;24.77;;
52586;SDS011;38480;52.724;6.436;2024-02-26T02:43:04;66.27;;;23.77;;
52586;SDS011;38480;52.724;6.436;2024-02-26T02:45:30;61.10;;;23.40;;
52586;SDS011;38480;52.724;6.436;2024-02-26T02:47:56;82.93;;;27.77;;
52586;SDS011;38480;52.724;6.436;2024-02-26T02:50:24;93.17;;;28.33;;
52586;SDS011;38480;52.724;6.436;2024-02-26T02:52:50;94.27;;;26.93;;
52586;SDS011;38480;52.724;6.436;2024-02-26T02:55:16;69.63;;;25.87;;
52586;SDS011;38480;52.724;6.436;2024-02-26T02:57:42;82.47;;;27.63;;
52586;SDS011;38480;52.724;6.436;2024-02-26T03:00:10;91.80;;;27.23;;
52586;SDS011;38480;52.724;6.436;2024-02-26T03:02:36;88.50;;;29.60;;
52586;SDS011;38480;52.724;6.436;2024-02-26T03:05:03;84.50;;;27.37;;
52586;SDS011;38480;52.724;6.436;2024-02-26T03:07:29;80.60;;;28.00;;
52586;SDS011;38480;52.724;6.436;2024-02-26T03:09:56;96.67;;;31.40;;
52586;SDS011;38480;52.724;6.436;2024-02-26T03:12:22;113.83;;;33.53;;
52586;SDS011;38480;52.724;6.436;2024-02-26T03:14:52;110.63;;;32.27;;
52586;SDS011;38480;52.724;6.436;2024-02-26T03:17:19;121.20;;;33.97;;
52586;SDS011;38480;52.724;6.436;2024-02-26T03:19:49;104.63;;;32.87;;
52586;SDS011;38480;52.724;6.436;2024-02-26T03:22:18;106.17;;;33.83;;
52586;SDS011;38480;52.724;6.436;2024-02-26T03:24:45;103.97;;;31.17;;
52586;SDS011;38480;52.724;6.436;2024-02-26T03:27:11;107.10;;;32.07;;
52586;SDS011;38480;52.724;6.436;2024-02-26T03:29:37;125.30;;;35.87;;
52586;SDS011;38480;52.724;6.436;2024-02-26T03:32:03;115.63;;;34.17;;
52586;SDS011;38480;52.724;6.436;2024-02-26T03:34:29;121.90;;;33.30;;
52586;SDS011;38480;52.724;6.436;2024-02-26T03:36:55;118.67;;;32.80;;
52586;SDS011;38480;52.724;6.436;2024-02-26T03:39:22;110.77;;;33.07;;
52586;SDS011;38480;52.724;6.436;2024-02-26T03:41:48;110.97;;;31.37;;
52586;SDS011;38480;52.724;6.436;2024-02-26T03:44:14;120.77;;;36.47;;
52586;SDS011;38480;52.724;6.436;2024-02-26T03:46:40;98.97;;;32.33;;
52586;SDS011;38480;52.724;6.436;2024-02-26T03:49:09;109.07;;;32.50;;
52586;SDS011;38480;52.724;6.436;2024-02-26T03:51:35;133.80;;;35.83;;
52586;SDS011;38480;52.724;6.436;2024-02-26T03:54:01;133.67;;;37.50;;
52586;SDS011;38480;52.724;6.436;2024-02-26T03:56:27;141.30;;;38.57;;
52586;SDS011;38480;52.724;6.436;2024-02-26T03:58:53;111.83;;;33.90;;
52586;SDS011;38480;52.724;6.436;2024-02-26T04:01:20;144.27;;;40.03;;
52586;SDS011;38480;52.724;6.436;2024-02-26T04:03:49;145.17;;;37.70;;
52586;SDS011;38480;52.724;6.436;2024-02-26T04:06:15;156.53;;;41.70;;
52586;SDS011;38480;52.724;6.436;2024-02-26T04:08:44;143.93;;;38.13;;
52586;SDS011;38480;52.724;6.436;2024-02-26T04:11:10;153.77;;;40.03;;
52586;SDS011;38480;52.724;6.436;2024-02-26T04:13:36;155.10;;;41.13;;
52586;SDS011;38480;52.724;6.436;2024-02-26T04:16:06;127.83;;;38.00;;
52586;SDS011;38480;52.724;6.436;2024-02-26T04:18:32;177.30;;;43.17;;
52586;SDS011;38480;52.724;6.436;2024-02-26T04:20:58;151.33;;;40.23;;
52586;SDS011;38480;52.724;6.436;2024-02-26T04:23:24;113.53;;;36.27;;
52586;SDS011;38480;52.724;6.436;2024-02-26T04:25:50;172.87;;;42.53;;
52586;SDS011;38480;52.724;6.436;2024-02-26T04:28:18;156.97;;;40.83;;
52586;SDS011;38480;52.724;6.436;2024-02-26T04:30:47;157.60;;;41.70;;
52586;SDS011;38480;52.724;6.436;2024-02-26T04:33:13;178.73;;;45.63;;
52586;SDS011;38480;52.724;6.436;2024-02-26T04:35:39;147.70;;;39.80;;
52586;SDS011;38480;52.724;6.436;2024-02-26T04:38:05;125.03;;;40.70;;
52586;SDS011;38480;52.724;6.436;2024-02-26T04:40:31;141.27;;;38.23;;
52586;SDS011;38480;52.724;6.436;2024-02-26T04:42:57;175.93;;;43.10;;
52586;SDS011;38480;52.724;6.436;2024-02-26T04:45:23;139.93;;;38.03;;
52586;SDS011;38480;52.724;6.436;2024-02-26T04:47:49;140.00;;;40.87;;
52586;SDS011;38480;52.724;6.436;2024-02-26T04:50:15;145.73;;;41.53;;
52586;SDS011;38480;52.724;6.436;2024-02-26T04:52:41;155.40;;;41.97;;
52586;SDS011;38480;52.724;6.436;2024-02-26T04:55:07;152.20;;;42.07;;
52586;SDS011;38480;52.724;6.436;2024-02-26T04:57:34;135.23;;;41.07;;
52586;SDS011;38480;52.724;6.436;2024-02-26T05:00:00;134.33;;;41.53;;
52586;SDS011;38480;52.724;6.436;2024-02-26T05:02:25;149.13;;;40.83;;
52586;SDS011;38480;52.724;6.436;2024-02-26T05:04:52;135.40;;;40.67;;
52586;SDS011;38480;52.724;6.436;2024-02-26T05:07:18;141.70;;;40.10;;
52586;SDS011;38480;52.724;6.436;2024-02-26T05:09:44;147.97;;;41.23;;
52586;SDS011;38480;52.724;6.436;2024-02-26T05:12:10;124.33;;;38.40;;
52586;SDS011;38480;52.724;6.436;2024-02-26T05:14:36;148.80;;;41.20;;
52586;SDS011;38480;52.724;6.436;2024-02-26T05:17:02;112.63;;;38.13;;
52586;SDS011;38480;52.724;6.436;2024-02-26T05:19:28;137.97;;;39.87;;
52586;SDS011;38480;52.724;6.436;2024-02-26T05:21:54;128.90;;;38.60;;
52586;SDS011;38480;52.724;6.436;2024-02-26T05:24:22;127.10;;;38.00;;
52586;SDS011;38480;52.724;6.436;2024-02-26T05:26:48;126.57;;;37.60;;
52586;SDS011;38480;52.724;6.436;2024-02-26T05:29:14;91.97;;;30.50;;
52586;SDS011;38480;52.724;6.436;2024-02-26T05:31:42;85.17;;;31.87;;
52586;SDS011;38480;52.724;6.436;2024-02-26T05:34:08;86.27;;;31.20;;
52586;SDS011;38480;52.724;6.436;2024-02-26T05:36:34;95.97;;;31.37;;
52586;SDS011;38480;52.724;6.436;2024-02-26T05:39:00;93.33;;;33.57;;
52586;SDS011;38480;52.724;6.436;2024-02-26T05:41:26;89.90;;;31.60;;
52586;SDS011;38480;52.724;6.436;2024-02-26T05:43:52;92.83;;;30.33;;
52586;SDS011;38480;52.724;6.436;2024-02-26T05:46:19;76.47;;;28.67;;
52586;SDS011;38480;52.724;6.436;2024-02-26T05:48:48;87.43;;;29.83;;
52586;SDS011;38480;52.724;6.436;2024-02-26T05:51:14;79.60;;;26.93;;
52586;SDS011;38480;52.724;6.436;2024-02-26T05:53:40;56.03;;;23.63;;
52586;SDS011;38480;52.724;6.436;2024-02-26T05:56:06;71.87;;;26.70;;
52586;SDS011;38480;52.724;6.436;2024-02-26T05:58:33;64.37;;;23.57;;
52586;SDS011;38480;52.724;6.436;2024-02-26T06:00:59;56.20;;;21.03;;
52586;SDS011;38480;52.724;6.436;2024-02-26T06:03:25;49.03;;;21.47;;
52586;SDS011;38480;52.724;6.436;2024-02-26T06:05:51;57.43;;;23.20;;
52586;SDS011;38480;52.724;6.436;2024-02-26T06:08:17;50.53;;;21.30;;
52586;SDS011;38480;52.724;6.436;2024-02-26T06:10:43;48.63;;;19.60;;
52586;SDS011;38480;52.724;6.436;2024-02-26T06:13:09;50.50;;;20.73;;
52586;SDS011;38480;52.724;6.436;2024-02-26T06:15:35;45.00;;;21.03;;
52586;SDS011;38480;52.724;6.436;2024-02-26T06:18:01;47.70;;;19.67;;
52586;SDS011;38480;52.724;6.436;2024-02-26T06:20:30;49.63;;;19.87;;
52586;SDS011;38480;52.724;6.436;2024-02-26T06:22:56;43.07;;;18.33;;
52586;SDS011;38480;52.724;6.436;2024-02-26T06:25:22;48.87;;;19.97;;
52586;SDS011;38480;52.724;6.436;2024-02-26T06:27:48;42.67;;;17.20;;
52586;SDS011;38480;52.724;6.436;2024-02-26T06:30:14;42.40;;;18.60;;
52586;SDS011;38480;52.724;6.436;2024-02-26T06:32:41;44.27;;;18.07;;
52586;SDS011;38480;52.724;6.436;2024-02-26T06:35:09;46.53;;;18.30;;
52586;SDS011;38480;52.724;6.436;2024-02-26T06:37:36;42.43;;;17.33;;
52586;SDS011;38480;52.724;6.436;2024-02-26T06:40:02;47.50;;;17.97;;
52586;SDS011;38480;52.724;6.436;2024-02-26T06:42:34;55.07;;;19.20;;
52586;SDS011;38480;52.724;6.436;2024-02-26T06:45:01;76.13;;;24.00;;
52586;SDS011;38480;52.724;6.436;2024-02-26T06:47:27;61.33;;;19.43;;
52586;SDS011;38480;52.724;6.436;2024-02-26T06:49:53;42.50;;;16.93;;
52586;SDS011;38480;52.724;6.436;2024-02-26T06:52:22;69.07;;;18.30;;
52586;SDS011;38480;52.724;6.436;2024-02-26T06:54:50;37.57;;;16.13;;
52586;SDS011;38480;52.724;6.436;2024-02-26T06:57:17;45.37;;;16.77;;
52586;SDS011;38480;52.724;6.436;2024-02-26T06:59:43;37.40;;;16.23;;
52586;SDS011;38480;52.724;6.436;2024-02-26T07:02:12;45.93;;;17.80;;
52586;SDS011;38480;52.724;6.436;2024-02-26T07:04:38;37.77;;;15.47;;
52586;SDS011;38480;52.724;6.436;2024-02-26T07:07:04;38.47;;;17.00;;
52586;SDS011;38480;52.724;6.436;2024-02-26T07:09:30;35.27;;;15.47;;
52586;SDS011;38480;52.724;6.436;2024-02-26T07:11:56;39.23;;;15.90;;
52586;SDS011;38480;52.724;6.436;2024-02-26T07:14:22;31.47;;;13.70;;
52586;SDS011;38480;52.724;6.436;2024-02-26T07:16:49;29.00;;;13.43;;
52586;SDS011;38480;52.724;6.436;2024-02-26T07:19:15;25.90;;;13.80;;
52586;SDS011;38480;52.724;6.436;2024-02-26T07:21:41;25.80;;;11.90;;
52586;SDS011;38480;52.724;6.436;2024-02-26T07:24:08;28.80;;;13.43;;
52586;SDS011;38480;52.724;6.436;2024-02-26T07:26:34;33.00;;;12.93;;
52586;SDS011;38480;52.724;6.436;2024-02-26T07:29:02;28.10;;;10.90;;
52586;SDS011;38480;52.724;6.436;2024-02-26T07:31:29;26.17;;;11.93;;
52586;SDS011;38480;52.724;6.436;2024-02-26T07:33:55;35.20;;;14.03;;
52586;SDS011;38480;52.724;6.436;2024-02-26T07:36:21;23.23;;;11.10;;
52586;SDS011;38480;52.724;6.436;2024-02-26T07:38:47;19.67;;;11.40;;
52586;SDS011;38480;52.724;6.436;2024-02-26T07:41:17;22.20;;;10.47;;
52586;SDS011;38480;52.724;6.436;2024-02-26T07:43:43;30.67;;;11.10;;
52586;SDS011;38480;52.724;6.436;2024-02-26T07:46:11;23.87;;;11.07;;
52586;SDS011;38480;52.724;6.436;2024-02-26T07:48:39;22.63;;;11.23;;
52586;SDS011;38480;52.724;6.436;2024-02-26T07:51:06;25.83;;;12.40;;
52586;SDS011;38480;52.724;6.436;2024-02-26T07:53:34;18.90;;;9.73;;
52586;SDS011;38480;52.724;6.436;2024-02-26T07:56:00;18.23;;;10.63;;
52586;SDS011;38480;52.724;6.436;2024-02-26T07:58:26;20.97;;;10.30;;
52586;SDS011;38480;52.724;6.436;2024-02-26T08:00:52;18.17;;;9.57;;
52586;SDS011;38480;52.724;6.436;2024-02-26T08:03:18;14.87;;;8.27;;
52586;SDS011;38480;52.724;6.436;2024-02-26T08:05:44;15.93;;;8.27;;
52586;SDS011;38480;52.724;6.436;2024-02-26T08:08:10;18.93;;;9.40;;
52586;SDS011;38480;52.724;6.436;2024-02-26T08:10:36;16.23;;;9.63;;
52586;SDS011;38480;52.724;6.436;2024-02-26T08:13:02;15.77;;;9.37;;
52586;SDS011;38480;52.724;6.436;2024-02-26T08:15:40;17.63;;;9.83;;
52586;SDS011;38480;52.724;6.436;2024-02-26T08:18:06;16.00;;;8.87;;
52586;SDS011;38480;52.724;6.436;2024-02-26T08:20:32;11.47;;;8.10;;
52586;SDS011;38480;52.724;6.436;2024-02-26T08:22:58;14.33;;;8.80;;
52586;SDS011;38480;52.724;6.436;2024-02-26T08:25:24;15.33;;;9.30;;
52586;SDS011;38480;52.724;6.436;2024-02-26T08:27:51;18.93;;;7.70;;
52586;SDS011;38480;52.724;6.436;2024-02-26T08:30:17;14.27;;;9.03;;
52586;SDS011;38480;52.724;6.436;2024-02-26T08:32:45;13.40;;;8.50;;
52586;SDS011;38480;52.724;6.436;2024-02-26T08:35:11;12.67;;;8.53;;
52586;SDS011;38480;52.724;6.436;2024-02-26T08:37:46;17.63;;;9.63;;
52586;SDS011;38480;52.724;6.436;2024-02-26T08:40:12;14.23;;;8.33;;
52586;SDS011;38480;52.724;6.436;2024-02-26T08:42:38;16.17;;;8.90;;
52586;SDS011;38480;52.724;6.436;2024-02-26T08:45:04;16.63;;;8.97;;
52586;SDS011;38480;52.724;6.436;2024-02-26T08:47:30;14.13;;;8.53;;
52586;SDS011;38480;52.724;6.436;2024-02-26T08:49:57;13.60;;;8.43;;
52586;SDS011;38480;52.724;6.436;2024-02-26T08:52:23;16.43;;;9.83;;
52586;SDS011;38480;52.724;6.436;2024-02-26T08:54:49;12.10;;;7.97;;
52586;SDS011;38480;52.724;6.436;2024-02-26T08:57:15;16.47;;;8.43;;
52586;SDS011;38480;52.724;6.436;2024-02-26T08:59:43;14.87;;;8.40;;
52586;SDS011;38480;52.724;6.436;2024-02-26T09:02:09;12.03;;;7.33;;
52586;SDS011;38480;52.724;6.436;2024-02-26T09:04:35;12.40;;;8.00;;
52586;SDS011;38480;52.724;6.436;2024-02-26T09:07:03;11.57;;;7.80;;
52586;SDS011;38480;52.724;6.436;2024-02-26T09:09:29;14.20;;;8.63;;
52586;SDS011;38480;52.724;6.436;2024-02-26T09:11:55;12.50;;;7.70;;
52586;SDS011;38480;52.724;6.436;2024-02-26T09:14:21;12.23;;;7.97;;
52586;SDS011;38480;52.724;6.436;2024-02-26T09:16:47;12.80;;;8.47;;
52586;SDS011;38480;52.724;6.436;2024-02-26T09:19:16;11.20;;;7.47;;
52586;SDS011;38480;52.724;6.436;2024-02-26T09:21:45;11.43;;;7.73;;
52586;SDS011;38480;52.724;6.436;2024-02-26T09:24:12;13.87;;;8.43;;
52586;SDS011;38480;52.724;6.436;2024-02-26T09:26:38;11.20;;;7.93;;
52586;SDS011;38480;52.724;6.436;2024-02-26T09:29:04;10.47;;;7.20;;
52586;SDS011;38480;52.724;6.436;2024-02-26T09:31:31;11.53;;;7.73;;
52586;SDS011;38480;52.724;6.436;2024-02-26T09:33:57;10.50;;;6.90;;
52586;SDS011;38480;52.724;6.436;2024-02-26T09:36:23;12.13;;;7.87;;
52586;SDS011;38480;52.724;6.436;2024-02-26T09:38:49;11.70;;;7.63;;
52586;SDS011;38480;52.724;6.436;2024-02-26T09:41:15;14.43;;;7.93;;
52586;SDS011;38480;52.724;6.436;2024-02-26T09:43:42;11.50;;;7.13;;
52586;SDS011;38480;52.724;6.436;2024-02-26T09:46:10;11.13;;;8.07;;
52586;SDS011;38480;52.724;6.436;2024-02-26T09:48:36;12.80;;;7.77;;
52586;SDS011;38480;52.724;6.436;2024-02-26T09:51:03;12.50;;;6.97;;
52586;SDS011;38480;52.724;6.436;2024-02-26T09:53:29;10.17;;;7.57;;
52586;SDS011;38480;52.724;6.436;2024-02-26T09:56:01;13.53;;;8.20;;
52586;SDS011;38480;52.724;6.436;2024-02-26T09:58:27;13.50;;;8.63;;
52586;SDS011;38480;52.724;6.436;2024-02-26T10:00:56;12.37;;;7.63;;
52586;SDS011;38480;52.724;6.436;2024-02-26T10:03:25;10.20;;;6.97;;
52586;SDS011;38480;52.724;6.436;2024-02-26T10:05:54;11.13;;;7.80;;
52586;SDS011;38480;52.724;6.436;2024-02-26T10:08:20;10.70;;;7.07;;
52586;SDS011;38480;52.724;6.436;2024-02-26T10:10:47;9.03;;;6.60;;
52586;SDS011;38480;52.724;6.436;2024-02-26T10:13:13;13.30;;;7.37;;
52586;SDS011;38480;52.724;6.436;2024-02-26T10:15:39;9.80;;;7.07;;
52586;SDS011;38480;52.724;6.436;2024-02-26T10:18:05;8.87;;;6.80;;
52586;SDS011;38480;52.724;6.436;2024-02-26T10:20:31;10.40;;;7.77;;
52586;SDS011;38480;52.724;6.436;2024-02-26T10:22:58;11.93;;;7.07;;
52586;SDS011;38480;52.724;6.436;2024-02-26T10:25:24;10.50;;;6.93;;
52586;SDS011;38480;52.724;6.436;2024-02-26T10:27:50;8.83;;;6.33;;
52586;SDS011;38480;52.724;6.436;2024-02-26T10:30:18;10.07;;;6.63;;
52586;SDS011;38480;52.724;6.436;2024-02-26T10:32:45;10.17;;;6.87;;
52586;SDS011;38480;52.724;6.436;2024-02-26T10:35:14;10.23;;;7.10;;
52586;SDS011;38480;52.724;6.436;2024-02-26T10:37:40;10.17;;;6.13;;
52586;SDS011;38480;52.724;6.436;2024-02-26T10:40:10;9.80;;;6.30;;
52586;SDS011;38480;52.724;6.436;2024-02-26T10:42:36;10.57;;;7.67;;
52586;SDS011;38480;52.724;6.436;2024-02-26T10:45:04;9.77;;;6.07;;
52586;SDS011;38480;52.724;6.436;2024-02-26T10:47:30;10.07;;;6.27;;
52586;SDS011;38480;52.724;6.436;2024-02-26T10:49:58;11.00;;;6.50;;
52586;SDS011;38480;52.724;6.436;2024-02-26T10:52:24;10.03;;;6.27;;
52586;SDS011;38480;52.724;6.436;2024-02-26T10:54:53;7.80;;;6.03;;
52586;SDS011;38480;52.724;6.436;2024-02-26T10:57:19;10.00;;;6.73;;
52586;SDS011;38480;52.724;6.436;2024-02-26T10:59:46;8.27;;;6.10;;
52586;SDS011;38480;52.724;6.436;2024-02-26T11:02:14;8.90;;;5.77;;
52586;SDS011;38480;52.724;6.436;2024-02-26T11:04:40;8.93;;;6.50;;
52586;SDS011;38480;52.724;6.436;2024-02-26T11:07:07;10.03;;;6.20;;
52586;SDS011;38480;52.724;6.436;2024-02-26T11:09:38;8.83;;;6.17;;
52586;SDS011;38480;52.724;6.436;2024-02-26T11:12:10;9.70;;;6.27;;
52586;SDS011;38480;52.724;6.436;2024-02-26T11:14:38;11.43;;;6.53;;
52586;SDS011;38480;52.724;6.436;2024-02-26T11:17:05;8.10;;;6.13;;
52586;SDS011;38480;52.724;6.436;2024-02-26T11:19:33;7.90;;;5.77;;
52586;SDS011;38480;52.724;6.436;2024-02-26T11:22:01;7.13;;;5.57;;
52586;SDS011;38480;52.724;6.436;2024-02-26T11:24:27;7.80;;;5.27;;
52586;SDS011;38480;52.724;6.436;2024-02-26T11:26:54;7.43;;;5.53;;
52586;SDS011;38480;52.724;6.436;2024-02-26T11:29:24;7.03;;;5.33;;
52586;SDS011;38480;52.724;6.436;2024-02-26T11:31:51;7.17;;;5.40;;
52586;SDS011;38480;52.724;6.436;2024-02-26T11:34:18;6.93;;;5.50;;
52586;SDS011;38480;52.724;6.436;2024-02-26T11:36:44;7.80;;;5.17;;
52586;SDS011;38480;52.724;6.436;2024-02-26T11:39:11;7.07;;;5.60;;
52586;SDS011;38480;52.724;6.436;2024-02-26T11:41:38;9.60;;;5.60;;
52586;SDS011;38480;52.724;6.436;2024-02-26T11:44:04;7.50;;;5.90;;
52586;SDS011;38480;52.724;6.436;2024-02-26T11:46:41;8.40;;;5.90;;
52586;SDS011;38480;52.724;6.436;2024-02-26T11:51:56;7.40;;;5.60;;
52586;SDS011;38480;52.724;6.436;2024-02-26T11:54:43;8.90;;;5.57;;
52586;SDS011;38480;52.724;6.436;2024-02-26T11:57:28;8.87;;;5.93;;
52586;SDS011;38480;52.724;6.436;2024-02-26T12:00:28;7.10;;;5.33;;
52586;SDS011;38480;52.724;6.436;2024-02-26T12:02:51;6.97;;;5.20;;
52586;SDS011;38480;52.724;6.436;2024-02-26T12:05:23;8.83;;;5.40;;
52586;SDS011;38480;52.724;6.436;2024-02-26T12:08:03;9.40;;;5.77;;
52586;SDS011;38480;52.724;6.436;2024-02-26T12:10:31;7.10;;;5.40;;
52586;SDS011;38480;52.724;6.436;2024-02-26T12:15:36;7.95;;;5.78;;
52586;SDS011;38480;52.724;6.436;2024-02-26T12:18:03;32.37;;;26.67;;
52586;SDS011;38480;52.724;6.436;2024-02-26T12:20:29;8.53;;;6.03;;
52586;SDS011;38480;52.724;6.436;2024-02-26T12:22:56;9.13;;;7.27;;
52586;SDS011;38480;52.724;6.436;2024-02-26T12:25:25;10.30;;;8.90;;
52586;SDS011;38480;52.724;6.436;2024-02-26T12:27:52;7.43;;;5.73;;
52586;SDS011;38480;52.724;6.436;2024-02-26T12:30:19;8.40;;;5.10;;
52586;SDS011;38480;52.724;6.436;2024-02-26T12:32:48;6.70;;;4.87;;
52586;SDS011;38480;52.724;6.436;2024-02-26T12:35:16;6.37;;;4.50;;
52586;SDS011;38480;52.724;6.436;2024-02-26T12:37:43;7.20;;;4.83;;
52586;SDS011;38480;52.724;6.436;2024-02-26T12:40:09;7.10;;;4.90;;
52586;SDS011;38480;52.724;6.436;2024-02-26T12:42:36;10.53;;;5.63;;
52586;SDS011;38480;52.724;6.436;2024-02-26T12:45:13;16.30;;;11.47;;
52586;SDS011;38480;52.724;6.436;2024-02-26T12:47:44;9.07;;;5.57;;
52586;SDS011;38480;52.724;6.436;2024-02-26T12:50:14;6.90;;;5.13;;
52586;SDS011;38480;52.724;6.436;2024-02-26T12:52:43;11.30;;;6.63;;
52586;SDS011;38480;52.724;6.436;2024-02-26T12:55:09;6.97;;;5.00;;
52586;SDS011;38480;52.724;6.436;2024-02-26T12:57:37;8.70;;;6.03;;
52586;SDS011;38480;52.724;6.436;2024-02-26T13:00:07;7.00;;;4.60;;
52586;SDS011;38480;52.724;6.436;2024-02-26T13:02:36;6.72;;;3.70;;
52586;SDS011;38480;52.724;6.436;2024-02-26T13:05:03;14.50;;;7.47;;
52586;SDS011;38480;52.724;6.436;2024-02-26T13:07:30;8.13;;;5.07;;
52586;SDS011;38480;52.724;6.436;2024-02-26T13:09:56;6.80;;;5.10;;
52586;SDS011;38480;52.724;6.436;2024-02-26T13:12:22;6.37;;;4.53;;
52586;SDS011;38480;52.724;6.436;2024-02-26T13:14:58;7.90;;;4.90;;
52586;SDS011;38480;52.724;6.436;2024-02-26T13:17:24;6.90;;;5.00;;
52586;SDS011;38480;52.724;6.436;2024-02-26T13:19:54;7.33;;;5.23;;
52586;SDS011;38480;52.724;6.436;2024-02-26T13:22:20;9.67;;;4.80;;
52586;SDS011;38480;52.724;6.436;2024-02-26T13:24:54;8.97;;;4.73;;
52586;SDS011;38480;52.724;6.436;2024-02-26T13:27:21;6.88;;;4.35;;
52586;SDS011;38480;52.724;6.436;2024-02-26T13:29:47;5.43;;;4.17;;
52586;SDS011;38480;52.724;6.436;2024-02-26T13:32:13;6.90;;;4.90;;
52586;SDS011;38480;52.724;6.436;2024-02-26T13:34:39;7.47;;;5.10;;
52586;SDS011;38480;52.724;6.436;2024-02-26T13:37:05;8.53;;;5.03;;
52586;SDS011;38480;52.724;6.436;2024-02-26T13:39:31;6.10;;;4.40;;
52586;SDS011;38480;52.724;6.436;2024-02-26T13:41:57;7.80;;;4.73;;
52586;SDS011;38480;52.724;6.436;2024-02-26T13:44:23;7.90;;;4.67;;
52586;SDS011;38480;52.724;6.436;2024-02-26T13:46:50;8.20;;;4.23;;
52586;SDS011;38480;52.724;6.436;2024-02-26T13:49:16;5.70;;;4.47;;
52586;SDS011;38480;52.724;6.436;2024-02-26T13:51:42;6.87;;;4.97;;
52586;SDS011;38480;52.724;6.436;2024-02-26T13:54:08;7.20;;;5.17;;
52586;SDS011;38480;52.724;6.436;2024-02-26T13:56:35;8.67;;;5.27;;
52586;SDS011;38480;52.724;6.436;2024-02-26T13:59:01;7.43;;;5.23;;
52586;SDS011;38480;52.724;6.436;2024-02-26T14:01:27;7.80;;;5.23;;
52586;SDS011;38480;52.724;6.436;2024-02-26T14:03:53;9.33;;;5.50;;
52586;SDS011;38480;52.724;6.436;2024-02-26T14:06:22;8.67;;;5.37;;
52586;SDS011;38480;52.724;6.436;2024-02-26T14:08:48;8.97;;;6.07;;
52586;SDS011;38480;52.724;6.436;2024-02-26T14:11:14;8.03;;;5.40;;
52586;SDS011;38480;52.724;6.436;2024-02-26T14:13:40;8.40;;;5.60;;
52586;SDS011;38480;52.724;6.436;2024-02-26T14:16:06;8.23;;;5.60;;
52586;SDS011;38480;52.724;6.436;2024-02-26T14:18:32;8.40;;;5.97;;
52586;SDS011;38480;52.724;6.436;2024-02-26T14:20:58;8.47;;;5.23;;
52586;SDS011;38480;52.724;6.436;2024-02-26T14:23:27;9.47;;;6.77;;
52586;SDS011;38480;52.724;6.436;2024-02-26T14:25:54;7.97;;;6.07;;
52586;SDS011;38480;52.724;6.436;2024-02-26T14:28:20;8.13;;;6.37;;
52586;SDS011;38480;52.724;6.436;2024-02-26T14:30:46;8.33;;;6.17;;
52586;SDS011;38480;52.724;6.436;2024-02-26T14:33:12;7.53;;;5.50;;